ACA1420 CYUL-MUCC
Flight info
| Callsign | ACA1420 |
|---|---|
| Flight time | N/A |
| Altitude | 38000 |
| Route | FAWNS DCT BUGSY DCT SYR J59 PSB Q71 EMNEM Q103 SLOJO/N0483F390 DCT EFFAY/N0487F380 Q83 JEVED Q97 DEBRL/N0483F390 Q97 TOVAR Y297 URSUS RESEB2 |
| Aircraft | A35K/H-SDE2E3GHIJ3J4J5LM1ORWXY/LB1D1 |
Departure
| Time | 2026-04-30 21:28 |
|---|---|
| Airport | Montreal / Pierre Elliott Trudeau International Airport (CYUL) |
Arrival
| Time | N/A |
|---|---|
| Airport | Jardines Del Rey Airport (MUCC) |
| Time | Latitude | Longitude | Altitude | Speed | Heading |
|---|---|---|---|---|---|
| 2026-04-30 21:08 | 45.45993 | -73.75455 | 111 ft | 0 kts | 194° |
| 2026-04-30 21:11 | 45.45994 | -73.75455 | 111 ft | 0 kts | 194° |
| 2026-04-30 21:12 | 45.45994 | -73.75454 | 111 ft | 1 kts | 194° |
| 2026-04-30 21:12 | 45.46007 | -73.75450 | 108 ft | 4 kts | 194° |
| 2026-04-30 21:12 | 45.46032 | -73.75444 | 108 ft | 2 kts | 180° |
| 2026-04-30 21:12 | 45.46055 | -73.75448 | 108 ft | 4 kts | 142° |
| 2026-04-30 21:13 | 45.46065 | -73.75476 | 107 ft | 4 kts | 90° |
| 2026-04-30 21:13 | 45.46064 | -73.75513 | 106 ft | 4 kts | 87° |
| 2026-04-30 21:13 | 45.46063 | -73.75551 | 106 ft | 4 kts | 87° |
| 2026-04-30 21:13 | 45.46063 | -73.75570 | 106 ft | 1 kts | 87° |
| 2026-04-30 21:14 | 45.46063 | -73.75575 | 106 ft | 0 kts | 87° |
| 2026-04-30 21:16 | 45.46063 | -73.75574 | 110 ft | 1 kts | 87° |
| 2026-04-30 21:16 | 45.46064 | -73.75550 | 110 ft | 4 kts | 87° |
| 2026-04-30 21:16 | 45.46065 | -73.75499 | 110 ft | 7 kts | 89° |
| 2026-04-30 21:17 | 45.46066 | -73.75420 | 108 ft | 9 kts | 86° |
| 2026-04-30 21:17 | 45.46112 | -73.75378 | 108 ft | 8 kts | 353° |
| 2026-04-30 21:17 | 45.46137 | -73.75345 | 107 ft | 6 kts | 73° |
| 2026-04-30 21:17 | 45.46143 | -73.75277 | 107 ft | 8 kts | 84° |
| 2026-04-30 21:18 | 45.46147 | -73.75186 | 107 ft | 10 kts | 89° |
| 2026-04-30 21:18 | 45.46149 | -73.75083 | 109 ft | 11 kts | 88° |
| 2026-04-30 21:18 | 45.46153 | -73.74974 | 110 ft | 12 kts | 87° |
| 2026-04-30 21:18 | 45.46158 | -73.74845 | 107 ft | 14 kts | 89° |
| 2026-04-30 21:19 | 45.46160 | -73.74691 | 109 ft | 17 kts | 88° |
| 2026-04-30 21:19 | 45.46137 | -73.74559 | 109 ft | 11 kts | 114° |
| 2026-04-30 21:19 | 45.46130 | -73.74436 | 109 ft | 14 kts | 87° |
| 2026-04-30 21:19 | 45.46134 | -73.74301 | 109 ft | 14 kts | 88° |
| 2026-04-30 21:20 | 45.46138 | -73.74158 | 110 ft | 13 kts | 87° |
| 2026-04-30 21:20 | 45.46163 | -73.74028 | 107 ft | 15 kts | 48° |
| 2026-04-30 21:20 | 45.46240 | -73.73926 | 108 ft | 16 kts | 42° |
| 2026-04-30 21:20 | 45.46323 | -73.73817 | 109 ft | 16 kts | 43° |
| 2026-04-30 21:21 | 45.46402 | -73.73713 | 110 ft | 16 kts | 43° |
| 2026-04-30 21:21 | 45.46483 | -73.73607 | 111 ft | 17 kts | 42° |
| 2026-04-30 21:21 | 45.46655 | -73.73381 | 113 ft | 16 kts | 42° |
| 2026-04-30 21:22 | 45.46740 | -73.73269 | 114 ft | 17 kts | 43° |
| 2026-04-30 21:22 | 45.47007 | -73.72919 | 119 ft | 18 kts | 43° |
| 2026-04-30 21:23 | 45.47083 | -73.72820 | 119 ft | 15 kts | 43° |
| 2026-04-30 21:23 | 45.47164 | -73.72713 | 120 ft | 17 kts | 43° |
| 2026-04-30 21:23 | 45.47350 | -73.72471 | 120 ft | 19 kts | 43° |
| 2026-04-30 21:24 | 45.47439 | -73.72353 | 123 ft | 13 kts | 43° |
| 2026-04-30 21:24 | 45.47510 | -73.72260 | 124 ft | 15 kts | 43° |
| 2026-04-30 21:24 | 45.47593 | -73.72151 | 122 ft | 17 kts | 43° |
| 2026-04-30 21:24 | 45.47677 | -73.72042 | 123 ft | 16 kts | 43° |
| 2026-04-30 21:25 | 45.47823 | -73.71851 | 124 ft | 15 kts | 42° |
| 2026-04-30 21:25 | 45.47870 | -73.71759 | 123 ft | 10 kts | 91° |
| 2026-04-30 21:25 | 45.47838 | -73.71673 | 125 ft | 11 kts | 124° |
| 2026-04-30 21:26 | 45.47729 | -73.71573 | 125 ft | 8 kts | 213° |
| 2026-04-30 21:26 | 45.47719 | -73.71586 | 127 ft | 0 kts | 220° |
| 2026-04-30 21:27 | 45.47565 | -73.71785 | 126 ft | 63 kts | 223° |
| 2026-04-30 21:27 | 45.47087 | -73.72414 | 119 ft | 122 kts | 223° |
| 2026-04-30 21:27 | 45.46338 | -73.73378 | 266 ft | 157 kts | 227° |
| 2026-04-30 21:28 | 45.44762 | -73.75439 | 1512 ft | 158 kts | 230° |
| 2026-04-30 21:28 | 45.43988 | -73.76574 | 2120 ft | 164 kts | 231° |
| 2026-04-30 21:28 | 45.42179 | -73.79089 | 2942 ft | 204 kts | 221° |
| 2026-04-30 21:29 | 45.40913 | -73.80303 | 3208 ft | 234 kts | 216° |
| 2026-04-30 21:29 | 45.36305 | -73.83682 | 5331 ft | 258 kts | 208° |
| 2026-04-30 21:30 | 45.33046 | -73.85929 | 7005 ft | 264 kts | 209° |
| 2026-04-30 21:31 | 45.27979 | -73.89257 | 9784 ft | 271 kts | 207° |
| 2026-04-30 21:31 | 45.24417 | -73.91654 | 10865 ft | 302 kts | 207° |
| 2026-04-30 21:32 | 45.20386 | -73.94442 | 11605 ft | 341 kts | 207° |
| 2026-04-30 21:32 | 45.18217 | -73.95951 | 12193 ft | 352 kts | 207° |
| 2026-04-30 21:32 | 45.16002 | -73.97491 | 12919 ft | 358 kts | 207° |
| 2026-04-30 21:32 | 45.13760 | -73.99047 | 13749 ft | 361 kts | 206° |
| 2026-04-30 21:33 | 45.11489 | -74.00621 | 14439 ft | 365 kts | 206° |
| 2026-04-30 21:33 | 45.06886 | -74.03803 | 15902 ft | 371 kts | 206° |
| 2026-04-30 21:33 | 45.04559 | -74.05410 | 16637 ft | 374 kts | 205° |
| 2026-04-30 21:34 | 45.02212 | -74.07028 | 17349 ft | 378 kts | 205° |
| 2026-04-30 21:34 | 44.97207 | -74.09385 | 18792 ft | 384 kts | 192° |
| 2026-04-30 21:34 | 44.94560 | -74.10052 | 19446 ft | 388 kts | 189° |
| 2026-04-30 21:35 | 44.91877 | -74.10587 | 20122 ft | 391 kts | 188° |
| 2026-04-30 21:35 | 44.89168 | -74.11066 | 20787 ft | 394 kts | 187° |
| 2026-04-30 21:35 | 44.86431 | -74.11533 | 21450 ft | 398 kts | 187° |
| 2026-04-30 21:35 | 44.83705 | -74.12005 | 22102 ft | 401 kts | 188° |
| 2026-04-30 21:36 | 44.80924 | -74.12501 | 22769 ft | 405 kts | 188° |
| 2026-04-30 21:36 | 44.78119 | -74.13027 | 23425 ft | 408 kts | 189° |
| 2026-04-30 21:37 | 44.70105 | -74.17392 | 25022 ft | 421 kts | 214° |
| 2026-04-30 21:37 | 44.67826 | -74.20018 | 25556 ft | 425 kts | 220° |
| 2026-04-30 21:37 | 44.65647 | -74.22856 | 26092 ft | 429 kts | 222° |
| 2026-04-30 21:37 | 44.63510 | -74.25805 | 26626 ft | 433 kts | 223° |
| 2026-04-30 21:38 | 44.61373 | -74.28810 | 27149 ft | 436 kts | 223° |
| 2026-04-30 21:38 | 44.59250 | -74.31793 | 27649 ft | 440 kts | 223° |
| 2026-04-30 21:38 | 44.57043 | -74.34866 | 28164 ft | 443 kts | 223° |
| 2026-04-30 21:38 | 44.54835 | -74.37908 | 28645 ft | 447 kts | 223° |
| 2026-04-30 21:39 | 44.52631 | -74.40923 | 29113 ft | 450 kts | 223° |
| 2026-04-30 21:39 | 44.50379 | -74.43984 | 29573 ft | 453 kts | 223° |
| 2026-04-30 21:39 | 44.48105 | -74.47066 | 30018 ft | 456 kts | 223° |
| 2026-04-30 21:39 | 44.45819 | -74.50159 | 30370 ft | 459 kts | 223° |
| 2026-04-30 21:40 | 44.43518 | -74.53271 | 30727 ft | 461 kts | 223° |
| 2026-04-30 21:40 | 44.41216 | -74.56380 | 31248 ft | 459 kts | 223° |
| 2026-04-30 21:40 | 44.38925 | -74.59473 | 31753 ft | 457 kts | 223° |
| 2026-04-30 21:40 | 44.37381 | -74.61557 | 32066 ft | 457 kts | 223° |
| 2026-04-30 21:41 | 44.35094 | -74.64639 | 32521 ft | 456 kts | 223° |
| 2026-04-30 21:41 | 44.32814 | -74.67708 | 32983 ft | 455 kts | 223° |
| 2026-04-30 21:41 | 44.30539 | -74.70766 | 33449 ft | 454 kts | 223° |
| 2026-04-30 21:41 | 44.28266 | -74.73819 | 33861 ft | 453 kts | 223° |
| 2026-04-30 21:42 | 44.26024 | -74.76826 | 34197 ft | 453 kts | 223° |
| 2026-04-30 21:42 | 44.23753 | -74.79869 | 34494 ft | 453 kts | 223° |
| 2026-04-30 21:42 | 44.21479 | -74.82914 | 34797 ft | 453 kts | 223° |
| 2026-04-30 21:42 | 44.19206 | -74.85953 | 35087 ft | 453 kts | 223° |
| 2026-04-30 21:43 | 44.16932 | -74.88990 | 35366 ft | 453 kts | 224° |
| 2026-04-30 21:43 | 44.14660 | -74.92020 | 35680 ft | 452 kts | 224° |
| 2026-04-30 21:43 | 44.12386 | -74.95051 | 35948 ft | 453 kts | 224° |
| 2026-04-30 21:43 | 44.10111 | -74.98080 | 36206 ft | 453 kts | 224° |
| 2026-04-30 21:44 | 44.07832 | -75.01111 | 36449 ft | 453 kts | 224° |
| 2026-04-30 21:44 | 44.05554 | -75.04138 | 36712 ft | 454 kts | 224° |
| 2026-04-30 21:44 | 44.03269 | -75.07169 | 36927 ft | 455 kts | 224° |
| 2026-04-30 21:44 | 44.00980 | -75.10204 | 37147 ft | 455 kts | 224° |
| 2026-04-30 21:45 | 43.98691 | -75.13233 | 37400 ft | 455 kts | 224° |
| 2026-04-30 21:45 | 43.96404 | -75.16258 | 37645 ft | 454 kts | 224° |
| 2026-04-30 21:45 | 43.94110 | -75.19287 | 37854 ft | 455 kts | 224° |
| 2026-04-30 21:45 | 43.91821 | -75.22308 | 38089 ft | 455 kts | 224° |
| 2026-04-30 21:46 | 43.89526 | -75.25332 | 38281 ft | 455 kts | 224° |
| 2026-04-30 21:46 | 43.87230 | -75.28355 | 38493 ft | 455 kts | 224° |
| 2026-04-30 21:46 | 43.84935 | -75.31372 | 38642 ft | 455 kts | 224° |
| 2026-04-30 21:46 | 43.82639 | -75.34388 | 38780 ft | 455 kts | 224° |
| 2026-04-30 21:47 | 43.80337 | -75.37408 | 38917 ft | 456 kts | 224° |
| 2026-04-30 21:47 | 43.78035 | -75.40426 | 39056 ft | 456 kts | 224° |
| 2026-04-30 21:47 | 43.75729 | -75.43444 | 39182 ft | 456 kts | 224° |
| 2026-04-30 21:47 | 43.73425 | -75.46457 | 39297 ft | 457 kts | 224° |
| 2026-04-30 21:48 | 43.71112 | -75.49477 | 39410 ft | 457 kts | 224° |
| 2026-04-30 21:48 | 43.68797 | -75.52498 | 39529 ft | 457 kts | 224° |
| 2026-04-30 21:48 | 43.66485 | -75.55510 | 39660 ft | 457 kts | 224° |
| 2026-04-30 21:48 | 43.64172 | -75.58522 | 39779 ft | 457 kts | 224° |
| 2026-04-30 21:49 | 43.59533 | -75.64551 | 39901 ft | 460 kts | 224° |
| 2026-04-30 21:49 | 43.54856 | -75.70616 | 39897 ft | 462 kts | 224° |
| 2026-04-30 21:50 | 43.50170 | -75.76677 | 39909 ft | 462 kts | 224° |
| 2026-04-30 21:50 | 43.45491 | -75.82717 | 39905 ft | 461 kts | 224° |
| 2026-04-30 21:51 | 43.40805 | -75.88753 | 39903 ft | 462 kts | 224° |
| 2026-04-30 21:51 | 43.36115 | -75.94780 | 39912 ft | 462 kts | 224° |
| 2026-04-30 21:52 | 43.31423 | -76.00797 | 39912 ft | 461 kts | 224° |
| 2026-04-30 21:52 | 43.26731 | -76.06800 | 39914 ft | 461 kts | 224° |
| 2026-04-30 21:53 | 43.22040 | -76.12789 | 39919 ft | 461 kts | 224° |
| 2026-04-30 21:53 | 43.17318 | -76.18745 | 39923 ft | 462 kts | 221° |
| 2026-04-30 21:54 | 43.12078 | -76.23748 | 39930 ft | 463 kts | 214° |
| 2026-04-30 21:54 | 43.06577 | -76.28358 | 39929 ft | 464 kts | 213° |
| 2026-04-30 21:55 | 43.01036 | -76.32894 | 39917 ft | 464 kts | 213° |
| 2026-04-30 21:55 | 42.95497 | -76.37435 | 39914 ft | 464 kts | 213° |
| 2026-04-30 21:56 | 42.89969 | -76.41982 | 39908 ft | 464 kts | 213° |
| 2026-04-30 21:56 | 42.84443 | -76.46531 | 39906 ft | 464 kts | 213° |
| 2026-04-30 21:57 | 42.78920 | -76.51061 | 39926 ft | 464 kts | 213° |
| 2026-04-30 21:57 | 42.73382 | -76.55589 | 39915 ft | 464 kts | 213° |
| 2026-04-30 21:58 | 42.67843 | -76.60111 | 39917 ft | 464 kts | 213° |
| 2026-04-30 21:58 | 42.62344 | -76.64599 | 39910 ft | 464 kts | 214° |
| 2026-04-30 21:59 | 42.56800 | -76.69106 | 39915 ft | 464 kts | 214° |
| 2026-04-30 22:00 | 42.48484 | -76.75844 | 39912 ft | 464 kts | 213° |
| 2026-04-30 22:00 | 42.40174 | -76.82562 | 39917 ft | 464 kts | 214° |
| 2026-04-30 22:01 | 42.34627 | -76.87035 | 39923 ft | 464 kts | 214° |
| 2026-04-30 22:01 | 42.29084 | -76.91495 | 39911 ft | 464 kts | 214° |
| 2026-04-30 22:02 | 42.23540 | -76.95947 | 39918 ft | 464 kts | 214° |
| 2026-04-30 22:02 | 42.17995 | -77.00400 | 39925 ft | 464 kts | 214° |
| 2026-04-30 22:03 | 42.12445 | -77.04835 | 39922 ft | 464 kts | 214° |
| 2026-04-30 22:03 | 42.06897 | -77.09257 | 39924 ft | 464 kts | 214° |
| 2026-04-30 22:04 | 42.01344 | -77.13677 | 39922 ft | 464 kts | 214° |
| 2026-04-30 22:05 | 41.93010 | -77.20296 | 39921 ft | 464 kts | 214° |
| 2026-04-30 22:05 | 41.87449 | -77.24701 | 39931 ft | 464 kts | 214° |
| 2026-04-30 22:06 | 41.81896 | -77.29092 | 39924 ft | 464 kts | 214° |
| 2026-04-30 22:06 | 41.73558 | -77.35666 | 39918 ft | 463 kts | 214° |
| 2026-04-30 22:07 | 41.68000 | -77.40039 | 39934 ft | 464 kts | 214° |
| 2026-04-30 22:07 | 41.62431 | -77.44411 | 39930 ft | 464 kts | 214° |
| 2026-04-30 22:08 | 41.56901 | -77.48748 | 39923 ft | 464 kts | 214° |
| 2026-04-30 22:08 | 41.51325 | -77.53104 | 39905 ft | 464 kts | 214° |
| 2026-04-30 22:09 | 41.45750 | -77.57452 | 39930 ft | 465 kts | 214° |
| 2026-04-30 22:09 | 41.40165 | -77.61801 | 39927 ft | 464 kts | 214° |
| 2026-04-30 22:10 | 41.34594 | -77.66138 | 39929 ft | 464 kts | 214° |
| 2026-04-30 22:10 | 41.29016 | -77.70465 | 39933 ft | 464 kts | 214° |
| 2026-04-30 22:11 | 41.20637 | -77.76942 | 39931 ft | 464 kts | 214° |
| 2026-04-30 22:12 | 41.15080 | -77.81229 | 39942 ft | 464 kts | 214° |
| 2026-04-30 22:12 | 41.09490 | -77.85534 | 39944 ft | 465 kts | 214° |
| 2026-04-30 22:13 | 41.03934 | -77.89806 | 39949 ft | 465 kts | 214° |
| 2026-04-30 22:13 | 40.98333 | -77.94104 | 39950 ft | 465 kts | 214° |
| 2026-04-30 22:14 | 40.92839 | -77.98577 | 39941 ft | 460 kts | 221° |
| 2026-04-30 22:14 | 40.88253 | -78.04341 | 39953 ft | 453 kts | 231° |
| 2026-04-30 22:15 | 40.84102 | -78.10589 | 39956 ft | 452 kts | 233° |
| 2026-04-30 22:15 | 40.80013 | -78.16902 | 39959 ft | 452 kts | 233° |
| 2026-04-30 22:16 | 40.75910 | -78.23196 | 39966 ft | 452 kts | 232° |
| 2026-04-30 22:17 | 40.67650 | -78.35730 | 39968 ft | 453 kts | 232° |
| 2026-04-30 22:17 | 40.61442 | -78.45107 | 39974 ft | 453 kts | 232° |
| 2026-04-30 22:18 | 40.55226 | -78.54469 | 39960 ft | 453 kts | 232° |
| 2026-04-30 22:19 | 40.49008 | -78.63805 | 39974 ft | 452 kts | 232° |
| 2026-04-30 22:20 | 40.42786 | -78.73118 | 39979 ft | 450 kts | 232° |
| 2026-04-30 22:20 | 40.36593 | -78.82362 | 39948 ft | 449 kts | 232° |
| 2026-04-30 22:21 | 40.32473 | -78.88498 | 39970 ft | 447 kts | 233° |
| 2026-04-30 22:21 | 40.28360 | -78.94615 | 39976 ft | 447 kts | 233° |
| 2026-04-30 22:22 | 40.24246 | -79.00719 | 39978 ft | 447 kts | 233° |
| 2026-04-30 22:22 | 40.20128 | -79.06816 | 39980 ft | 447 kts | 232° |
| 2026-04-30 22:23 | 40.16033 | -79.12865 | 40010 ft | 448 kts | 232° |
| 2026-04-30 22:23 | 40.11916 | -79.18967 | 40015 ft | 447 kts | 233° |
| 2026-04-30 22:24 | 40.07845 | -79.25107 | 40014 ft | 447 kts | 233° |
| 2026-04-30 22:24 | 40.03776 | -79.31248 | 40014 ft | 447 kts | 233° |
| 2026-04-30 22:25 | 39.99701 | -79.37372 | 40000 ft | 447 kts | 233° |
| 2026-04-30 22:25 | 39.95615 | -79.43488 | 40010 ft | 447 kts | 233° |
| 2026-04-30 22:26 | 39.89481 | -79.52645 | 40019 ft | 448 kts | 233° |
| 2026-04-30 22:27 | 39.85381 | -79.58748 | 40019 ft | 448 kts | 233° |
| 2026-04-30 22:27 | 39.79228 | -79.67891 | 39987 ft | 448 kts | 233° |
| 2026-04-30 22:28 | 39.73081 | -79.76997 | 40025 ft | 446 kts | 233° |
| 2026-04-30 22:29 | 39.64890 | -79.89097 | 40027 ft | 446 kts | 233° |
| 2026-04-30 22:31 | 39.48123 | -80.06799 | 40024 ft | 473 kts | 201° |
| 2026-04-30 22:32 | 39.39188 | -80.07835 | 40013 ft | 488 kts | 188° |
| 2026-04-30 22:32 | 39.32378 | -80.07854 | 40016 ft | 490 kts | 187° |
| 2026-04-30 22:33 | 39.15355 | -80.07995 | 39995 ft | 489 kts | 188° |
| 2026-04-30 22:35 | 38.98342 | -80.08267 | 40023 ft | 489 kts | 188° |
| 2026-04-30 22:36 | 38.85235 | -80.10694 | 40027 ft | 471 kts | 203° |
| 2026-04-30 22:36 | 38.82075 | -80.11789 | 40027 ft | 470 kts | 204° |
| 2026-04-30 22:37 | 38.69469 | -80.16280 | 40011 ft | 470 kts | 204° |
| 2026-04-30 22:38 | 38.56850 | -80.20705 | 40029 ft | 470 kts | 204° |
| 2026-04-30 22:39 | 38.47379 | -80.23996 | 39995 ft | 470 kts | 205° |
| 2026-04-30 22:40 | 38.28466 | -80.30558 | 40024 ft | 469 kts | 205° |
| 2026-04-30 22:41 | 38.12688 | -80.36002 | 40011 ft | 471 kts | 206° |
| 2026-04-30 22:43 | 37.93715 | -80.42515 | 39995 ft | 471 kts | 206° |
| 2026-04-30 22:44 | 37.81062 | -80.46843 | 39999 ft | 470 kts | 206° |
| 2026-04-30 22:45 | 37.62154 | -80.53275 | 39993 ft | 469 kts | 207° |
| 2026-04-30 22:47 | 37.43327 | -80.59650 | 39964 ft | 467 kts | 207° |
| 2026-04-30 22:48 | 37.30760 | -80.63889 | 39958 ft | 468 kts | 207° |
| 2026-04-30 22:49 | 37.11909 | -80.70203 | 39969 ft | 470 kts | 206° |
| 2026-04-30 22:50 | 36.98350 | -80.71148 | 39970 ft | 499 kts | 191° |
| 2026-04-30 22:51 | 36.91408 | -80.70922 | 39963 ft | 499 kts | 191° |
| 2026-04-30 22:52 | 36.80990 | -80.70622 | 39968 ft | 499 kts | 191° |
| 2026-04-30 22:53 | 36.67087 | -80.70291 | 39962 ft | 499 kts | 191° |
| 2026-04-30 22:53 | 36.56652 | -80.70055 | 39943 ft | 502 kts | 191° |